sensor_id;sensor_type;location;lat;lon;timestamp;pressure;altitude;pressure_sealevel;temperature;humidity
1652;BME280;823;49.028;8.454;2023-05-03T00:00:58;101355.34;;;13.74;52.00
1652;BME280;823;49.028;8.454;2023-05-03T00:06:14;101355.38;;;13.72;52.46
1652;BME280;823;49.028;8.454;2023-05-03T00:11:14;101363.03;;;13.49;52.31
1652;BME280;823;49.028;8.454;2023-05-03T00:16:15;101361.47;;;13.41;52.75
1652;BME280;823;49.028;8.454;2023-05-03T00:21:15;101368.50;;;13.39;52.46
1652;BME280;823;49.028;8.454;2023-05-03T00:26:16;101357.38;;;13.33;53.02
1652;BME280;823;49.028;8.454;2023-05-03T00:31:16;101356.72;;;13.26;53.52
1652;BME280;823;49.028;8.454;2023-05-03T00:36:16;101358.66;;;13.18;53.78
1652;BME280;823;49.028;8.454;2023-05-03T00:41:17;101358.81;;;13.13;53.00
1652;BME280;823;49.028;8.454;2023-05-03T00:46:17;101361.53;;;13.08;53.36
1652;BME280;823;49.028;8.454;2023-05-03T00:51:18;101352.28;;;12.98;53.60
1652;BME280;823;49.028;8.454;2023-05-03T00:56:19;101352.34;;;12.97;53.92
1652;BME280;823;49.028;8.454;2023-05-03T01:01:20;101347.19;;;12.95;53.70
1652;BME280;823;49.028;8.454;2023-05-03T01:06:31;101345.72;;;12.86;53.24
1652;BME280;823;49.028;8.454;2023-05-03T01:17:28;101331.44;;;12.70;54.43
1652;BME280;823;49.028;8.454;2023-05-03T01:27:41;101324.56;;;12.67;54.27
1652;BME280;823;49.028;8.454;2023-05-03T01:33:04;101327.97;;;12.69;54.30
1652;BME280;823;49.028;8.454;2023-05-03T01:38:09;101326.41;;;12.64;54.60
1652;BME280;823;49.028;8.454;2023-05-03T01:43:11;101330.88;;;12.57;54.71
1652;BME280;823;49.028;8.454;2023-05-03T01:48:16;101325.00;;;12.52;55.08
1652;BME280;823;49.028;8.454;2023-05-03T01:53:16;101326.72;;;12.51;54.76
1652;BME280;823;49.028;8.454;2023-05-03T01:58:16;101324.38;;;12.40;54.36
1652;BME280;823;49.028;8.454;2023-05-03T02:03:17;101319.53;;;12.28;54.92
1652;BME280;823;49.028;8.454;2023-05-03T02:08:18;101323.03;;;12.27;55.35
1652;BME280;823;49.028;8.454;2023-05-03T02:13:18;101317.91;;;12.24;54.72
1652;BME280;823;49.028;8.454;2023-05-03T02:18:18;101321.69;;;12.11;55.11
1652;BME280;823;49.028;8.454;2023-05-03T02:23:19;101325.47;;;11.97;55.90
1652;BME280;823;49.028;8.454;2023-05-03T02:28:19;101329.81;;;11.97;55.55
1652;BME280;823;49.028;8.454;2023-05-03T02:33:19;101322.00;;;11.98;55.71
1652;BME280;823;49.028;8.454;2023-05-03T02:38:21;101334.28;;;11.88;54.90
1652;BME280;823;49.028;8.454;2023-05-03T02:43:21;101326.72;;;11.79;54.93
1652;BME280;823;49.028;8.454;2023-05-03T02:48:22;101325.97;;;11.74;55.05
1652;BME280;823;49.028;8.454;2023-05-03T02:53:22;101332.81;;;11.76;55.50
1652;BME280;823;49.028;8.454;2023-05-03T02:58:22;101332.09;;;11.70;55.60
1652;BME280;823;49.028;8.454;2023-05-03T03:03:23;101332.00;;;11.74;55.25
1652;BME280;823;49.028;8.454;2023-05-03T03:08:23;101332.00;;;11.74;55.53
1652;BME280;823;49.028;8.454;2023-05-03T03:13:24;101337.28;;;11.71;55.85
1652;BME280;823;49.028;8.454;2023-05-03T03:18:24;101338.28;;;11.64;56.03
1652;BME280;823;49.028;8.454;2023-05-03T03:23:24;101340.09;;;11.61;55.20
1652;BME280;823;49.028;8.454;2023-05-03T03:28:25;101342.06;;;11.49;55.28
1652;BME280;823;49.028;8.454;2023-05-03T03:33:25;101353.53;;;11.37;55.34
1652;BME280;823;49.028;8.454;2023-05-03T03:38:26;101346.75;;;11.32;56.01
1652;BME280;823;49.028;8.454;2023-05-03T03:43:26;101347.81;;;11.21;56.74
1652;BME280;823;49.028;8.454;2023-05-03T03:48:27;101351.34;;;11.19;56.17
1652;BME280;823;49.028;8.454;2023-05-03T03:53:27;101343.75;;;11.10;56.90
1652;BME280;823;49.028;8.454;2023-05-03T03:58:27;101339.94;;;11.67;55.85
1652;BME280;823;49.028;8.454;2023-05-03T04:03:28;101340.91;;;11.63;55.51
1652;BME280;823;49.028;8.454;2023-05-03T04:08:29;101349.22;;;11.36;55.25
1652;BME280;823;49.028;8.454;2023-05-03T04:13:29;101349.38;;;11.30;56.23
1652;BME280;823;49.028;8.454;2023-05-03T04:18:30;101359.91;;;11.21;55.91
1652;BME280;823;49.028;8.454;2023-05-03T04:23:30;101352.38;;;11.08;56.06
1652;BME280;823;49.028;8.454;2023-05-03T04:28:31;101348.22;;;11.01;55.91
1652;BME280;823;49.028;8.454;2023-05-03T04:33:31;101347.41;;;10.98;56.54
1652;BME280;823;49.028;8.454;2023-05-03T04:38:32;101349.22;;;10.94;57.03
1652;BME280;823;49.028;8.454;2023-05-03T04:43:32;101355.00;;;11.07;57.13
1652;BME280;823;49.028;8.454;2023-05-03T04:48:33;101349.72;;;11.12;56.31
1652;BME280;823;49.028;8.454;2023-05-03T04:53:35;101358.16;;;11.23;56.28
1652;BME280;823;49.028;8.454;2023-05-03T04:58:35;101363.19;;;11.29;56.58
1652;BME280;823;49.028;8.454;2023-05-03T05:03:36;101368.25;;;11.37;56.47
1652;BME280;823;49.028;8.454;2023-05-03T05:08:37;101365.66;;;11.37;55.82
1652;BME280;823;49.028;8.454;2023-05-03T05:13:38;101376.72;;;11.44;55.55
1652;BME280;823;49.028;8.454;2023-05-03T05:18:38;101379.16;;;11.51;56.14
1652;BME280;823;49.028;8.454;2023-05-03T05:23:38;101371.13;;;11.64;55.91
1652;BME280;823;49.028;8.454;2023-05-03T05:28:39;101375.16;;;11.77;55.30
1652;BME280;823;49.028;8.454;2023-05-03T05:33:39;101376.47;;;11.97;55.82
1652;BME280;823;49.028;8.454;2023-05-03T05:38:41;101371.75;;;12.13;55.56
1652;BME280;823;49.028;8.454;2023-05-03T05:43:41;101375.59;;;12.34;55.24
1652;BME280;823;49.028;8.454;2023-05-03T05:48:41;101374.69;;;12.69;55.44
1652;BME280;823;49.028;8.454;2023-05-03T05:53:42;101372.19;;;12.99;53.42
1652;BME280;823;49.028;8.454;2023-05-03T05:58:42;101368.06;;;13.22;54.49
1652;BME280;823;49.028;8.454;2023-05-03T06:03:43;101361.41;;;13.44;53.46
1652;BME280;823;49.028;8.454;2023-05-03T06:08:43;101368.59;;;13.65;53.33
1652;BME280;823;49.028;8.454;2023-05-03T06:13:44;101368.81;;;13.87;53.14
1652;BME280;823;49.028;8.454;2023-05-03T06:18:45;101362.50;;;13.94;51.68
1652;BME280;823;49.028;8.454;2023-05-03T06:23:45;101359.16;;;13.90;51.87
1652;BME280;823;49.028;8.454;2023-05-03T06:28:45;101360.72;;;13.96;50.62
1652;BME280;823;49.028;8.454;2023-05-03T06:33:46;101363.03;;;14.05;51.13
1652;BME280;823;49.028;8.454;2023-05-03T06:38:46;101357.50;;;14.14;51.70
1652;BME280;823;49.028;8.454;2023-05-03T06:43:47;101353.81;;;14.22;49.64
1652;BME280;823;49.028;8.454;2023-05-03T06:48:47;101345.66;;;14.33;49.99
1652;BME280;823;49.028;8.454;2023-05-03T06:53:47;101350.97;;;14.55;51.03
1652;BME280;823;49.028;8.454;2023-05-03T06:58:48;101344.69;;;14.87;49.75
1652;BME280;823;49.028;8.454;2023-05-03T07:03:49;101337.03;;;15.06;49.95
1652;BME280;823;49.028;8.454;2023-05-03T07:08:50;101323.72;;;15.38;49.08
1652;BME280;823;49.028;8.454;2023-05-03T07:13:51;101343.88;;;15.56;48.11
1652;BME280;823;49.028;8.454;2023-05-03T07:18:52;101344.72;;;15.57;47.88
1652;BME280;823;49.028;8.454;2023-05-03T07:23:52;101336.59;;;15.64;48.14
1652;BME280;823;49.028;8.454;2023-05-03T07:28:52;101331.38;;;15.88;48.34
1652;BME280;823;49.028;8.454;2023-05-03T07:33:53;101324.78;;;16.00;47.79
1652;BME280;823;49.028;8.454;2023-05-03T07:38:53;101324.75;;;16.22;46.75
1652;BME280;823;49.028;8.454;2023-05-03T07:43:54;101317.38;;;16.32;46.32
1652;BME280;823;49.028;8.454;2023-05-03T07:48:57;101321.03;;;16.48;47.26
1652;BME280;823;49.028;8.454;2023-05-03T07:53:57;101304.19;;;16.56;45.42
1652;BME280;823;49.028;8.454;2023-05-03T07:58:58;101299.41;;;16.65;46.06
1652;BME280;823;49.028;8.454;2023-05-03T08:03:59;101298.66;;;17.03;45.02
1652;BME280;823;49.028;8.454;2023-05-03T08:08:59;101302.38;;;17.16;46.65
1652;BME280;823;49.028;8.454;2023-05-03T08:14:00;101301.25;;;17.22;45.80
1652;BME280;823;49.028;8.454;2023-05-03T08:19:00;101322.00;;;17.44;44.87
1652;BME280;823;49.028;8.454;2023-05-03T08:24:00;101313.63;;;17.74;43.93
1652;BME280;823;49.028;8.454;2023-05-03T08:29:01;101317.66;;;17.81;44.01
1652;BME280;823;49.028;8.454;2023-05-03T08:34:02;101324.19;;;17.92;43.35
1652;BME280;823;49.028;8.454;2023-05-03T08:39:04;101320.09;;;17.84;44.83
1652;BME280;823;49.028;8.454;2023-05-03T08:44:16;101321.63;;;18.08;43.88
1652;BME280;823;49.028;8.454;2023-05-03T08:49:20;101316.50;;;18.24;44.00
1652;BME280;823;49.028;8.454;2023-05-03T08:54:20;101304.84;;;18.29;42.68
1652;BME280;823;49.028;8.454;2023-05-03T08:59:21;101307.22;;;18.16;43.66
1652;BME280;823;49.028;8.454;2023-05-03T09:04:31;101296.88;;;18.48;42.90
1652;BME280;823;49.028;8.454;2023-05-03T09:09:33;101303.53;;;18.38;43.91
1652;BME280;823;49.028;8.454;2023-05-03T09:14:44;101308.78;;;18.71;42.05
1652;BME280;823;49.028;8.454;2023-05-03T09:19:52;101312.94;;;18.76;42.89
1652;BME280;823;49.028;8.454;2023-05-03T09:24:54;101299.16;;;19.05;44.88
1652;BME280;823;49.028;8.454;2023-05-03T09:29:55;101306.25;;;19.03;41.55
1652;BME280;823;49.028;8.454;2023-05-03T09:35:08;101302.38;;;19.27;42.31
1652;BME280;823;49.028;8.454;2023-05-03T09:40:09;101298.47;;;19.34;40.74
1652;BME280;823;49.028;8.454;2023-05-03T09:45:22;101298.28;;;19.37;41.64
1652;BME280;823;49.028;8.454;2023-05-03T09:50:23;101293.47;;;19.61;40.40
1652;BME280;823;49.028;8.454;2023-05-03T09:55:24;101291.84;;;19.59;42.11
1652;BME280;823;49.028;8.454;2023-05-03T10:00:24;101285.56;;;19.93;42.08
1652;BME280;823;49.028;8.454;2023-05-03T10:05:27;101282.16;;;20.21;40.83
1652;BME280;823;49.028;8.454;2023-05-03T10:10:33;101280.47;;;20.20;39.82
1652;BME280;823;49.028;8.454;2023-05-03T10:15:35;101271.22;;;20.72;41.49
1652;BME280;823;49.028;8.454;2023-05-03T10:20:49;101266.06;;;20.71;39.43
1652;BME280;823;49.028;8.454;2023-05-03T10:26:17;101261.72;;;20.55;40.52
1652;BME280;823;49.028;8.454;2023-05-03T10:36:46;101233.75;;;20.54;40.28
1652;BME280;823;49.028;8.454;2023-05-03T10:42:04;101238.91;;;20.85;38.87
1652;BME280;823;49.028;8.454;2023-05-03T10:47:16;101233.75;;;20.83;38.65
1652;BME280;823;49.028;8.454;2023-05-03T10:57:37;101221.53;;;20.97;38.91
1652;BME280;823;49.028;8.454;2023-05-03T11:08:34;101223.03;;;20.86;39.90
1652;BME280;823;49.028;8.454;2023-05-03T11:13:37;101214.88;;;20.91;38.83
1652;BME280;823;49.028;8.454;2023-05-03T11:18:38;101207.50;;;21.11;38.45
1652;BME280;823;49.028;8.454;2023-05-03T11:23:38;101217.59;;;21.44;38.68
1652;BME280;823;49.028;8.454;2023-05-03T11:28:39;101210.63;;;21.83;36.37
1652;BME280;823;49.028;8.454;2023-05-03T11:33:40;101200.25;;;21.94;35.94
1652;BME280;823;49.028;8.454;2023-05-03T11:38:41;101200.03;;;22.10;36.16
1652;BME280;823;49.028;8.454;2023-05-03T11:43:46;101200.97;;;21.97;34.97
1652;BME280;823;49.028;8.454;2023-05-03T11:48:47;101196.22;;;21.89;34.96
1652;BME280;823;49.028;8.454;2023-05-03T11:53:48;101184.94;;;22.00;35.49
1652;BME280;823;49.028;8.454;2023-05-03T11:58:55;101190.53;;;21.82;34.58
1652;BME280;823;49.028;8.454;2023-05-03T12:03:59;101183.59;;;21.94;34.87
1652;BME280;823;49.028;8.454;2023-05-03T12:09:01;101175.56;;;21.83;35.24
1652;BME280;823;49.028;8.454;2023-05-03T12:14:02;101168.19;;;22.01;34.38
1652;BME280;823;49.028;8.454;2023-05-03T12:19:02;101166.72;;;22.35;34.53
1652;BME280;823;49.028;8.454;2023-05-03T12:24:02;101156.81;;;22.39;33.38
1652;BME280;823;49.028;8.454;2023-05-03T12:29:03;101161.66;;;22.32;34.04
1652;BME280;823;49.028;8.454;2023-05-03T12:34:03;101148.16;;;22.24;34.68
1652;BME280;823;49.028;8.454;2023-05-03T12:39:04;101147.31;;;22.23;34.64
1652;BME280;823;49.028;8.454;2023-05-03T12:44:06;101138.75;;;22.45;33.56
1652;BME280;823;49.028;8.454;2023-05-03T12:49:07;101130.31;;;22.53;33.04
1652;BME280;823;49.028;8.454;2023-05-03T12:54:07;101117.25;;;22.76;33.88
1652;BME280;823;49.028;8.454;2023-05-03T12:59:10;101123.31;;;22.89;32.71
1652;BME280;823;49.028;8.454;2023-05-03T13:04:11;101112.75;;;22.65;32.58
1652;BME280;823;49.028;8.454;2023-05-03T13:09:12;101109.19;;;22.90;32.43
1652;BME280;823;49.028;8.454;2023-05-03T13:14:15;101102.13;;;22.54;32.23
1652;BME280;823;49.028;8.454;2023-05-03T13:19:16;101096.09;;;22.65;32.78
1652;BME280;823;49.028;8.454;2023-05-03T13:24:16;101090.78;;;22.53;32.36
1652;BME280;823;49.028;8.454;2023-05-03T13:29:16;101081.78;;;22.80;32.66
1652;BME280;823;49.028;8.454;2023-05-03T13:34:17;101084.22;;;22.83;32.04
1652;BME280;823;49.028;8.454;2023-05-03T13:39:17;101078.66;;;23.10;31.92
1652;BME280;823;49.028;8.454;2023-05-03T13:44:18;101073.38;;;23.10;30.92
1652;BME280;823;49.028;8.454;2023-05-03T13:49:18;101063.13;;;22.83;31.02
1652;BME280;823;49.028;8.454;2023-05-03T13:54:19;101050.59;;;23.09;29.98
1652;BME280;823;49.028;8.454;2023-05-03T13:59:19;101053.34;;;23.08;31.87
1652;BME280;823;49.028;8.454;2023-05-03T14:04:20;101038.69;;;23.28;30.38
1652;BME280;823;49.028;8.454;2023-05-03T14:09:20;101037.13;;;23.48;29.94
1652;BME280;823;49.028;8.454;2023-05-03T14:14:21;101028.25;;;23.26;30.59
1652;BME280;823;49.028;8.454;2023-05-03T14:19:21;101020.44;;;23.36;30.50
1652;BME280;823;49.028;8.454;2023-05-03T14:24:21;101014.09;;;23.39;31.09
1652;BME280;823;49.028;8.454;2023-05-03T14:29:22;101013.38;;;23.48;30.06
1652;BME280;823;49.028;8.454;2023-05-03T14:34:22;101007.88;;;23.51;29.63
1652;BME280;823;49.028;8.454;2023-05-03T14:39:23;101016.25;;;23.45;29.41
1652;BME280;823;49.028;8.454;2023-05-03T14:44:24;101006.38;;;23.13;29.37
1652;BME280;823;49.028;8.454;2023-05-03T14:49:24;101003.84;;;23.11;28.91
1652;BME280;823;49.028;8.454;2023-05-03T14:54:25;101009.91;;;22.89;29.29
1652;BME280;823;49.028;8.454;2023-05-03T14:59:25;101019.59;;;23.24;28.94
1652;BME280;823;49.028;8.454;2023-05-03T15:04:26;101013.84;;;23.31;28.84
1652;BME280;823;49.028;8.454;2023-05-03T15:09:29;101016.00;;;23.25;29.18
1652;BME280;823;49.028;8.454;2023-05-03T15:14:30;101014.31;;;23.36;28.74
1652;BME280;823;49.028;8.454;2023-05-03T15:19:30;101012.16;;;23.41;28.31
1652;BME280;823;49.028;8.454;2023-05-03T15:24:31;101002.31;;;23.32;29.28
1652;BME280;823;49.028;8.454;2023-05-03T15:29:31;101001.13;;;23.24;27.11
1652;BME280;823;49.028;8.454;2023-05-03T15:34:32;100996.81;;;23.35;28.41
1652;BME280;823;49.028;8.454;2023-05-03T15:39:32;100986.84;;;23.16;28.43
1652;BME280;823;49.028;8.454;2023-05-03T15:44:33;100991.41;;;23.25;29.23
1652;BME280;823;49.028;8.454;2023-05-03T15:49:33;100987.66;;;23.16;29.36
1652;BME280;823;49.028;8.454;2023-05-03T15:54:33;100978.09;;;23.26;28.66
1652;BME280;823;49.028;8.454;2023-05-03T15:59:34;100975.34;;;23.17;30.43
1652;BME280;823;49.028;8.454;2023-05-03T16:04:35;100981.94;;;23.22;30.41
1652;BME280;823;49.028;8.454;2023-05-03T16:09:36;100978.19;;;23.13;29.73
1652;BME280;823;49.028;8.454;2023-05-03T16:14:36;100965.59;;;23.17;30.37
1652;BME280;823;49.028;8.454;2023-05-03T16:19:37;100962.78;;;22.85;29.59
1652;BME280;823;49.028;8.454;2023-05-03T16:24:37;100962.91;;;22.94;30.04
1652;BME280;823;49.028;8.454;2023-05-03T16:29:37;100954.88;;;22.85;29.84
1652;BME280;823;49.028;8.454;2023-05-03T16:34:38;100947.03;;;22.72;29.86
1652;BME280;823;49.028;8.454;2023-05-03T16:39:38;100948.34;;;22.66;30.04
1652;BME280;823;49.028;8.454;2023-05-03T16:44:39;100945.56;;;22.68;29.95
1652;BME280;823;49.028;8.454;2023-05-03T16:49:40;100952.00;;;22.52;29.90
1652;BME280;823;49.028;8.454;2023-05-03T16:54:41;100936.19;;;22.52;30.09
1652;BME280;823;49.028;8.454;2023-05-03T16:59:42;100932.38;;;22.56;30.07
1652;BME280;823;49.028;8.454;2023-05-03T17:04:42;100942.91;;;22.56;29.54
1652;BME280;823;49.028;8.454;2023-05-03T17:09:43;100931.16;;;22.49;29.90
1652;BME280;823;49.028;8.454;2023-05-03T17:14:43;100938.13;;;22.50;29.57
1652;BME280;823;49.028;8.454;2023-05-03T17:19:45;100934.72;;;22.48;29.57
1652;BME280;823;49.028;8.454;2023-05-03T17:24:45;100940.47;;;22.42;29.60
1652;BME280;823;49.028;8.454;2023-05-03T17:29:46;100940.50;;;22.29;29.85
1652;BME280;823;49.028;8.454;2023-05-03T17:34:46;100943.09;;;22.18;29.83
1652;BME280;823;49.028;8.454;2023-05-03T17:39:46;100955.09;;;21.98;30.14
1652;BME280;823;49.028;8.454;2023-05-03T17:44:49;100947.47;;;22.06;30.50
1652;BME280;823;49.028;8.454;2023-05-03T17:49:50;100955.97;;;21.85;30.23
1652;BME280;823;49.028;8.454;2023-05-03T17:54:51;100955.16;;;21.72;30.20
1652;BME280;823;49.028;8.454;2023-05-03T17:59:51;100946.66;;;21.55;30.14
1652;BME280;823;49.028;8.454;2023-05-03T18:04:51;100947.19;;;21.60;30.35
1652;BME280;823;49.028;8.454;2023-05-03T18:09:52;100950.00;;;21.44;30.71
1652;BME280;823;49.028;8.454;2023-05-03T18:14:52;100945.81;;;21.29;30.73
1652;BME280;823;49.028;8.454;2023-05-03T18:19:59;100959.63;;;21.20;30.90
1652;BME280;823;49.028;8.454;2023-05-03T18:25:00;100961.72;;;21.15;30.95
1652;BME280;823;49.028;8.454;2023-05-03T18:30:02;100957.53;;;20.99;31.23
1652;BME280;823;49.028;8.454;2023-05-03T18:35:03;100957.81;;;20.82;31.70
1652;BME280;823;49.028;8.454;2023-05-03T18:40:03;100960.94;;;20.74;31.86
1652;BME280;823;49.028;8.454;2023-05-03T18:45:04;100960.44;;;20.54;32.01
1652;BME280;823;49.028;8.454;2023-05-03T18:50:05;100965.88;;;20.38;32.50
1652;BME280;823;49.028;8.454;2023-05-03T18:55:06;100969.88;;;20.44;32.83
1652;BME280;823;49.028;8.454;2023-05-03T19:00:07;100971.28;;;20.22;32.90
1652;BME280;823;49.028;8.454;2023-05-03T19:05:09;100969.44;;;20.10;33.18
1652;BME280;823;49.028;8.454;2023-05-03T19:10:10;100970.97;;;20.00;33.32
1652;BME280;823;49.028;8.454;2023-05-03T19:15:10;100976.44;;;19.82;33.63
1652;BME280;823;49.028;8.454;2023-05-03T19:20:11;100980.56;;;19.72;34.07
1652;BME280;823;49.028;8.454;2023-05-03T19:25:11;100981.66;;;19.53;34.43
1652;BME280;823;49.028;8.454;2023-05-03T19:30:12;100990.97;;;19.45;34.54
1652;BME280;823;49.028;8.454;2023-05-03T19:35:12;100990.09;;;19.30;35.17
1652;BME280;823;49.028;8.454;2023-05-03T19:40:14;100986.16;;;19.22;35.73
1652;BME280;823;49.028;8.454;2023-05-03T19:45:14;100987.09;;;19.07;35.43
1652;BME280;823;49.028;8.454;2023-05-03T19:50:15;100985.38;;;18.92;35.39
1652;BME280;823;49.028;8.454;2023-05-03T19:55:16;100990.91;;;18.85;35.76
1652;BME280;823;49.028;8.454;2023-05-03T20:00:16;100992.75;;;18.69;35.96
1652;BME280;823;49.028;8.454;2023-05-03T20:05:17;100999.28;;;18.62;35.95
1652;BME280;823;49.028;8.454;2023-05-03T20:10:18;101000.38;;;18.58;36.67
1652;BME280;823;49.028;8.454;2023-05-03T20:15:18;101008.59;;;18.51;38.31
1652;BME280;823;49.028;8.454;2023-05-03T20:20:18;101003.44;;;18.34;39.45
1652;BME280;823;49.028;8.454;2023-05-03T20:25:19;101017.31;;;18.20;39.04
1652;BME280;823;49.028;8.454;2023-05-03T20:30:21;101006.16;;;18.00;40.54
1652;BME280;823;49.028;8.454;2023-05-03T20:35:21;101005.19;;;17.85;40.82
1652;BME280;823;49.028;8.454;2023-05-03T20:40:21;100996.28;;;17.72;42.43
1652;BME280;823;49.028;8.454;2023-05-03T20:45:22;100996.28;;;17.56;41.98
1652;BME280;823;49.028;8.454;2023-05-03T20:50:22;100991.69;;;17.44;41.79
1652;BME280;823;49.028;8.454;2023-05-03T20:55:22;101000.59;;;17.40;41.09
1652;BME280;823;49.028;8.454;2023-05-03T21:00:23;100999.25;;;17.32;40.36
1652;BME280;823;49.028;8.454;2023-05-03T21:05:23;100995.31;;;17.24;39.37
1652;BME280;823;49.028;8.454;2023-05-03T21:10:24;101004.22;;;17.37;39.27
1652;BME280;823;49.028;8.454;2023-05-03T21:15:25;100998.16;;;17.36;40.60
1652;BME280;823;49.028;8.454;2023-05-03T21:20:25;100997.28;;;17.36;40.85
1652;BME280;823;49.028;8.454;2023-05-03T21:25:25;100996.38;;;17.37;42.14
1652;BME280;823;49.028;8.454;2023-05-03T21:30:26;100988.16;;;17.27;41.21
1652;BME280;823;49.028;8.454;2023-05-03T21:35:27;100992.88;;;17.21;42.21
1652;BME280;823;49.028;8.454;2023-05-03T21:40:27;100989.22;;;17.07;43.21
1652;BME280;823;49.028;8.454;2023-05-03T21:45:27;100971.81;;;16.89;42.93
1652;BME280;823;49.028;8.454;2023-05-03T21:50:28;100968.97;;;16.76;43.24
1652;BME280;823;49.028;8.454;2023-05-03T21:55:28;100960.66;;;16.67;43.39
1652;BME280;823;49.028;8.454;2023-05-03T22:00:28;100965.16;;;16.64;43.20
1652;BME280;823;49.028;8.454;2023-05-03T22:05:30;100970.56;;;16.61;43.56
1652;BME280;823;49.028;8.454;2023-05-03T22:10:31;100960.44;;;16.55;43.53
1652;BME280;823;49.028;8.454;2023-05-03T22:15:31;100959.00;;;16.47;44.82
1652;BME280;823;49.028;8.454;2023-05-03T22:20:32;100953.19;;;16.42;44.90
1652;BME280;823;49.028;8.454;2023-05-03T22:25:33;100953.53;;;16.34;45.36
1652;BME280;823;49.028;8.454;2023-05-03T22:30:33;100948.56;;;16.30;46.08
1652;BME280;823;49.028;8.454;2023-05-03T22:35:33;100953.38;;;16.20;45.94
1652;BME280;823;49.028;8.454;2023-05-03T22:40:34;100943.50;;;16.08;45.90
1652;BME280;823;49.028;8.454;2023-05-03T22:45:34;100952.09;;;15.91;45.87
1652;BME280;823;49.028;8.454;2023-05-03T22:50:35;100947.19;;;15.85;46.80
1652;BME280;823;49.028;8.454;2023-05-03T22:55:35;100948.97;;;15.84;46.82
1652;BME280;823;49.028;8.454;2023-05-03T23:00:36;100948.38;;;15.77;46.85
1652;BME280;823;49.028;8.454;2023-05-03T23:05:36;100953.84;;;15.71;47.74
1652;BME280;823;49.028;8.454;2023-05-03T23:10:36;100948.06;;;15.64;47.68
1652;BME280;823;49.028;8.454;2023-05-03T23:15:37;100946.53;;;15.60;47.53
1652;BME280;823;49.028;8.454;2023-05-03T23:20:37;100933.97;;;15.49;47.93
1652;BME280;823;49.028;8.454;2023-05-03T23:25:38;100933.19;;;15.47;47.69
1652;BME280;823;49.028;8.454;2023-05-03T23:30:42;100931.63;;;15.43;47.68
1652;BME280;823;49.028;8.454;2023-05-03T23:35:43;100930.88;;;15.41;46.07
1652;BME280;823;49.028;8.454;2023-05-03T23:40:44;100930.06;;;15.39;45.68
1652;BME280;823;49.028;8.454;2023-05-03T23:45:44;100930.13;;;15.38;47.34
1652;BME280;823;49.028;8.454;2023-05-03T23:50:45;100922.47;;;15.35;48.28
1652;BME280;823;49.028;8.454;2023-05-03T23:55:45;100913.09;;;15.30;48.19
